This is the latest recevied weather packets stored in our database for station/object DK0KTL-4. If no packets are shown the sender has not sent any weather packets the latest 10 day(s).
| Time | Temp. | Humidity | Pressure | Rain* | Wind** | Luminosity | Snow |
|---|---|---|---|---|---|---|---|
| 1777661143 | 16.11° C | 55% | 1024.8 hPa | 0 mm | - | - | - |
| 1777660543 | 17.22° C | 52% | 1024.7 hPa | 0 mm | - | - | - |
| 1777656038 | 23.89° C | 38% | 1024.8 hPa | 0 mm | - | - | - |
| 1777655738 | 23.89° C | 38% | 1025 hPa | 0 mm | - | - | - |
| 1777655437 | 23.89° C | 38% | 1025 hPa | 0 mm | - | - | - |
| 1777654837 | 24.44° C | 37% | 1024.9 hPa | 0 mm | - | - | - |
| 1777652735 | 25° C | 36% | 1025.3 hPa | 0 mm | - | - | - |
| 1777652435 | 25° C | 33% | 1025.3 hPa | 0 mm | - | - | - |
| 1777652134 | 25° C | 34% | 1025.4 hPa | 0 mm | - | - | - |
| 1777651834 | 25° C | 35% | 1025.3 hPa | 0 mm | - | - | - |
| 1777650933 | 24.44° C | 34% | 1025.5 hPa | 0 mm | - | - | - |
| 1777650633 | 25° C | 31% | 1025.6 hPa | 0 mm | - | - | - |
| 1777650333 | 25° C | 32% | 1025.6 hPa | 0 mm | - | - | - |
| 1777649732 | 25° C | 33% | 1025.6 hPa | 0 mm | - | - | - |
| 1777649131 | 25° C | 32% | 1025.7 hPa | 0 mm | - | - | - |
| 1777648231 | 25° C | 32% | 1026 hPa | 0 mm | - | - | - |
| 1777647630 | 25° C | 32% | 1026 hPa | 0 mm | - | - | - |
| 1777646129 | 25.56° C | 32% | 1026.3 hPa | 0 mm | - | - | - |
| 1777645228 | 25.56° C | 34% | 1026.4 hPa | 0 mm | - | - | - |
| 1777644026 | 25° C | 33% | 1026.7 hPa | 0 mm | - | - | - |
| 1777642825 | 24.44° C | 33% | 1026.9 hPa | 0 mm | - | - | - |
| 1777642525 | 24.44° C | 31% | 1026.8 hPa | 0 mm | - | - | - |
| 1777642225 | 23.89° C | 37% | 1026.8 hPa | 0 mm | - | - | - |
| 1777641924 | 23.89° C | 31% | 1026.7 hPa | 0 mm | - | - | - |
| 1777641324 | 24.44° C | 31% | 1026.9 hPa | 0 mm | - | - | - |
* Rain latest hour (hover to see other rain measurements)
** Current wind speed in m/s (hover to see current wind gust speed)